Time;durP1;ratioP1;P1;durP2;ratioP2;P2;SDS_P1;SDS_P2;PMS_P1;PMS_P2;Temp;Humidity;BMP_temperature;BMP_pressure;BME280_temperature;BME280_humidity;BME280_pressure;Samples;Min_cycle;Max_cycle;Signal;HPM_P1;HPM_P2
2024/01/20 00:02:22;;;;;;;74.90;25.97;;;;;;;;;;5105007;28;20451;-74
2024/01/20 00:04:47;;;;;;;63.25;23.65;;;;;;;;;;5104690;28;20272;-74
2024/01/20 00:07:13;;;;;;;64.35;25.05;;;;;;;;;;5101865;28;20036;-74
2024/01/20 00:09:38;;;;;;;64.28;22.85;;;;;;;;;;5104828;28;20026;-74
2024/01/20 00:12:03;;;;;;;74.85;24.92;;;;;;;;;;5104443;28;20128;-74
2024/01/20 00:14:28;;;;;;;65.80;23.08;;;;;;;;;;5101905;28;20043;-74
2024/01/20 00:16:54;;;;;;;65.65;24.50;;;;;;;;;;5104877;28;20020;-74
2024/01/20 00:19:19;;;;;;;57.75;22.42;;;;;;;;;;5101958;28;20031;-74
2024/01/20 00:21:45;;;;;;;68.75;24.38;;;;;;;;;;5104473;28;20023;-74
2024/01/20 00:24:10;;;;;;;69.10;23.02;;;;;;;;;;5102753;28;20019;-74
2024/01/20 00:26:35;;;;;;;65.20;23.17;;;;;;;;;;5103157;28;20067;-74
2024/01/20 00:29:00;;;;;;;69.45;22.55;;;;;;;;;;5104411;28;20034;-74
2024/01/20 00:31:26;;;;;;;66.87;23.63;;;;;;;;;;5102555;28;20028;-74
2024/01/20 00:33:51;;;;;;;69.22;22.25;;;;;;;;;;5103617;28;20398;-74
2024/01/20 00:36:16;;;;;;;62.47;22.95;;;;;;;;;;5104405;28;20099;-74
2024/01/20 00:38:42;;;;;;;59.53;22.48;;;;;;;;;;5102820;28;20038;-74
2024/01/20 00:41:07;;;;;;;65.57;23.35;;;;;;;;;;5105734;28;20073;-74
2024/01/20 00:43:33;;;;;;;62.70;22.00;;;;;;;;;;5101531;28;20020;-74
2024/01/20 00:45:58;;;;;;;64.85;22.40;;;;;;;;;;5108062;28;20043;-74
2024/01/20 00:48:23;;;;;;;65.47;21.63;;;;;;;;;;5100503;28;20012;-74
2024/01/20 00:50:48;;;;;;;64.77;22.80;;;;;;;;;;5108345;28;20024;-74
2024/01/20 00:53:14;;;;;;;61.23;22.97;;;;;;;;;;5101099;28;20749;-74
2024/01/20 00:55:39;;;;;;;62.58;21.60;;;;;;;;;;5107059;28;20301;-74
2024/01/20 00:58:04;;;;;;;62.70;21.53;;;;;;;;;;5103004;28;20089;-74
2024/01/20 01:00:29;;;;;;;70.63;22.90;;;;;;;;;;5105764;28;20346;-74
2024/01/20 01:02:54;;;;;;;66.82;22.88;;;;;;;;;;5102803;28;20305;-74
2024/01/20 01:05:19;;;;;;;61.75;24.48;;;;;;;;;;5100903;28;20456;-73
2024/01/20 01:07:45;;;;;;;59.15;22.30;;;;;;;;;;5100681;28;20024;-74
2024/01/20 01:10:10;;;;;;;61.87;21.53;;;;;;;;;;5106609;28;20526;-74
2024/01/20 01:12:35;;;;;;;63.80;21.42;;;;;;;;;;5100852;28;20266;-74
2024/01/20 01:15:01;;;;;;;58.35;21.98;;;;;;;;;;5106882;28;20020;-74
2024/01/20 01:17:26;;;;;;;60.60;22.20;;;;;;;;;;5100601;28;20494;-74
2024/01/20 01:19:51;;;;;;;63.13;22.48;;;;;;;;;;5104945;28;20367;-74
2024/01/20 01:22:16;;;;;;;61.25;22.15;;;;;;;;;;5103267;28;20356;-73
2024/01/20 01:24:42;;;;;;;64.97;21.88;;;;;;;;;;5101713;28;20148;-74
2024/01/20 01:27:07;;;;;;;60.20;21.20;;;;;;;;;;5103871;28;20032;-74
2024/01/20 01:29:32;;;;;;;64.82;21.45;;;;;;;;;;5102029;28;20031;-74
2024/01/20 01:31:58;;;;;;;65.82;22.13;;;;;;;;;;5103191;28;20098;-74
2024/01/20 01:34:23;;;;;;;57.53;22.85;;;;;;;;;;5102393;28;20023;-74
2024/01/20 01:36:48;;;;;;;58.63;21.88;;;;;;;;;;5107010;28;20049;-73
2024/01/20 01:39:15;;;;;;;53.25;20.83;;;;;;;;;;5108039;28;20016;-74
2024/01/20 01:41:40;;;;;;;53.70;21.45;;;;;;;;;;5105993;28;20020;-74
2024/01/20 01:44:05;;;;;;;54.90;19.77;;;;;;;;;;5106681;28;20028;-74
2024/01/20 01:46:31;;;;;;;61.33;20.73;;;;;;;;;;5105640;28;20368;-74
2024/01/20 01:48:56;;;;;;;56.05;21.58;;;;;;;;;;5106731;28;20262;-74
2024/01/20 01:51:21;;;;;;;56.80;20.25;;;;;;;;;;5101190;28;20540;-74
2024/01/20 01:53:47;;;;;;;52.97;21.50;;;;;;;;;;5109766;28;20020;-74
2024/01/20 01:56:13;;;;;;;57.08;22.33;;;;;;;;;;5104073;28;20028;-74
2024/01/20 01:58:38;;;;;;;58.30;22.52;;;;;;;;;;5108407;28;20120;-74
2024/01/20 02:01:04;;;;;;;53.78;20.77;;;;;;;;;;5104706;28;20047;-74
2024/01/20 02:03:29;;;;;;;61.05;21.67;;;;;;;;;;5107510;28;20371;-74
2024/01/20 02:05:54;;;;;;;58.95;21.33;;;;;;;;;;5106541;28;20382;-74
2024/01/20 02:08:20;;;;;;;58.65;20.35;;;;;;;;;;5105583;28;20081;-74
2024/01/20 02:10:46;;;;;;;57.75;22.27;;;;;;;;;;5107043;28;20018;-74
2024/01/20 02:13:12;;;;;;;52.13;20.30;;;;;;;;;;5104987;28;20024;-74
2024/01/20 02:15:38;;;;;;;60.83;22.52;;;;;;;;;;5107446;28;20020;-74
2024/01/20 02:18:03;;;;;;;52.25;19.33;;;;;;;;;;5106413;28;20443;-74
2024/01/20 02:20:28;;;;;;;51.22;20.65;;;;;;;;;;5106024;28;20024;-74
2024/01/20 02:22:54;;;;;;;56.05;21.23;;;;;;;;;;5106519;28;20051;-74
2024/01/20 02:25:19;;;;;;;60.97;23.08;;;;;;;;;;5106000;28;20044;-74
2024/01/20 02:27:44;;;;;;;57.92;21.63;;;;;;;;;;5106220;28;20069;-74
2024/01/20 02:30:09;;;;;;;58.55;20.73;;;;;;;;;;5107842;28;20365;-74
2024/01/20 02:32:34;;;;;;;53.85;20.02;;;;;;;;;;5105857;28;20371;-74
2024/01/20 02:35:00;;;;;;;58.07;21.97;;;;;;;;;;5108810;28;20043;-74
2024/01/20 02:37:25;;;;;;;65.80;24.87;;;;;;;;;;5103216;28;20266;-74
2024/01/20 02:39:50;;;;;;;55.97;21.58;;;;;;;;;;5111634;28;20262;-74
2024/01/20 02:42:15;;;;;;;59.60;20.85;;;;;;;;;;5102605;28;20024;-73
2024/01/20 02:44:41;;;;;;;49.67;19.80;;;;;;;;;;5111794;28;20455;-74
2024/01/20 02:47:07;;;;;;;60.72;21.90;;;;;;;;;;5101706;28;20302;-73
2024/01/20 02:49:32;;;;;;;63.40;24.73;;;;;;;;;;5103406;28;20490;-74
2024/01/20 02:51:58;;;;;;;62.28;22.38;;;;;;;;;;5102930;28;20024;-74
2024/01/20 02:54:23;;;;;;;58.65;22.05;;;;;;;;;;5102303;28;20032;-74
2024/01/20 02:56:48;;;;;;;58.00;22.55;;;;;;;;;;5109713;28;20032;-74
2024/01/20 02:59:13;;;;;;;60.58;22.17;;;;;;;;;;5108310;28;20044;-74
2024/01/20 03:01:39;;;;;;;60.30;24.03;;;;;;;;;;5108199;28;20024;-74
2024/01/20 03:04:04;;;;;;;57.30;22.10;;;;;;;;;;5104030;28;20284;-74
2024/01/20 03:06:29;;;;;;;54.65;20.55;;;;;;;;;;5106991;28;20115;-74
2024/01/20 03:08:55;;;;;;;61.88;21.85;;;;;;;;;;5104998;28;20479;-74
2024/01/20 03:11:20;;;;;;;55.47;20.20;;;;;;;;;;5105014;28;20027;-74
2024/01/20 03:13:45;;;;;;;50.20;20.65;;;;;;;;;;5105937;28;20030;-73
2024/01/20 03:16:10;;;;;;;52.43;20.17;;;;;;;;;;5104333;28;20079;-74
2024/01/20 03:18:37;;;;;;;56.63;21.70;;;;;;;;;;5106254;28;20767;-74
2024/01/20 03:21:02;;;;;;;54.65;20.27;;;;;;;;;;5105985;28;20139;-74
2024/01/20 03:23:28;;;;;;;56.60;21.33;;;;;;;;;;5104285;28;20574;-74
2024/01/20 03:25:53;;;;;;;51.67;20.52;;;;;;;;;;5105705;28;20028;-74
2024/01/20 03:28:18;;;;;;;51.05;20.92;;;;;;;;;;5108564;28;20016;-74
2024/01/20 03:30:43;;;;;;;47.30;19.30;;;;;;;;;;5104475;28;20024;-74
2024/01/20 03:33:08;;;;;;;52.43;20.17;;;;;;;;;;5106915;28;20411;-74
2024/01/20 03:35:33;;;;;;;50.70;18.77;;;;;;;;;;5097861;28;20266;-74
2024/01/20 03:37:59;;;;;;;48.93;19.43;;;;;;;;;;5108332;28;20355;-74
2024/01/20 03:40:24;;;;;;;50.60;19.80;;;;;;;;;;5102370;28;20254;-74
2024/01/20 03:42:49;;;;;;;49.37;18.93;;;;;;;;;;5110176;28;20039;-74
2024/01/20 03:45:14;;;;;;;48.80;19.97;;;;;;;;;;5101653;28;20271;-74
2024/01/20 03:47:39;;;;;;;51.38;19.88;;;;;;;;;;5110671;28;20279;-74
2024/01/20 03:50:06;;;;;;;48.57;19.40;;;;;;;;;;5101916;28;20349;-74
2024/01/20 03:52:31;;;;;;;52.28;20.65;;;;;;;;;;5101515;28;20820;-74
2024/01/20 03:54:56;;;;;;;50.92;18.95;;;;;;;;;;5103936;28;20103;-74
2024/01/20 03:57:21;;;;;;;52.33;20.17;;;;;;;;;;5106191;28;20019;-74
2024/01/20 03:59:47;;;;;;;52.53;21.00;;;;;;;;;;5105443;28;20270;-74
2024/01/20 04:02:12;;;;;;;49.30;19.50;;;;;;;;;;5108850;28;20361;-74
2024/01/20 04:04:37;;;;;;;46.95;19.65;;;;;;;;;;5099772;28;21020;-74
2024/01/20 04:07:03;;;;;;;48.22;19.85;;;;;;;;;;5109046;28;20039;-74
2024/01/20 04:09:28;;;;;;;52.85;19.38;;;;;;;;;;5103270;28;20454;-74
2024/01/20 04:11:53;;;;;;;48.35;20.20;;;;;;;;;;5104054;28;20023;-74
2024/01/20 04:14:18;;;;;;;51.88;21.33;;;;;;;;;;5101925;28;20023;-74
2024/01/20 04:16:43;;;;;;;46.57;19.50;;;;;;;;;;5103219;28;20020;-74
2024/01/20 04:19:09;;;;;;;50.80;20.02;;;;;;;;;;5100944;28;20707;-74
2024/01/20 04:21:34;;;;;;;48.73;20.87;;;;;;;;;;5102473;28;20024;-74
2024/01/20 04:23:59;;;;;;;51.70;20.07;;;;;;;;;;5105667;28;20261;-74
2024/01/20 04:26:24;;;;;;;55.33;20.98;;;;;;;;;;5100476;28;20812;-74
2024/01/20 04:28:49;;;;;;;49.30;20.05;;;;;;;;;;5107082;28;20481;-74
2024/01/20 04:31:14;;;;;;;45.92;18.85;;;;;;;;;;5103141;28;20039;-74
2024/01/20 04:33:40;;;;;;;51.43;18.13;;;;;;;;;;5105703;28;20580;-74
2024/01/20 04:36:06;;;;;;;43.53;18.88;;;;;;;;;;5102706;28;20283;-74
2024/01/20 04:38:31;;;;;;;52.03;20.20;;;;;;;;;;5104354;28;20016;-74
2024/01/20 04:40:56;;;;;;;50.47;20.02;;;;;;;;;;5105701;28;20019;-74
2024/01/20 04:43:21;;;;;;;48.20;18.80;;;;;;;;;;5107229;28;20028;-74
2024/01/20 04:45:47;;;;;;;47.38;19.92;;;;;;;;;;5100872;28;20455;-74
2024/01/20 04:48:12;;;;;;;48.08;19.55;;;;;;;;;;5105118;28;20443;-74
2024/01/20 04:50:37;;;;;;;53.20;20.30;;;;;;;;;;5102194;28;20034;-74
2024/01/20 04:53:02;;;;;;;57.03;20.08;;;;;;;;;;5104358;28;20042;-74
2024/01/20 04:55:28;;;;;;;51.83;19.13;;;;;;;;;;5103681;28;20077;-74
2024/01/20 04:57:53;;;;;;;47.33;18.33;;;;;;;;;;5102178;28;20024;-74
2024/01/20 05:00:18;;;;;;;51.80;22.33;;;;;;;;;;5107661;28;20280;-74
2024/01/20 05:02:43;;;;;;;54.95;21.10;;;;;;;;;;5100968;28;20020;-74
2024/01/20 05:05:08;;;;;;;49.23;19.20;;;;;;;;;;5104298;28;20031;-74
2024/01/20 05:07:33;;;;;;;50.70;18.60;;;;;;;;;;5102933;28;20342;-74
2024/01/20 05:09:59;;;;;;;47.27;19.73;;;;;;;;;;5104925;28;20282;-74
2024/01/20 05:12:24;;;;;;;51.33;18.83;;;;;;;;;;5110949;28;20310;-74
2024/01/20 05:14:50;;;;;;;52.17;19.33;;;;;;;;;;5107935;27;20406;-74
2024/01/20 05:17:15;;;;;;;47.22;19.15;;;;;;;;;;5110818;27;20024;-74
2024/01/20 05:19:41;;;;;;;42.50;18.43;;;;;;;;;;5110875;28;20024;-74
2024/01/20 05:22:06;;;;;;;42.85;18.10;;;;;;;;;;5108868;28;20302;-74
2024/01/20 05:24:31;;;;;;;50.95;19.40;;;;;;;;;;5113042;28;20020;-74
2024/01/20 05:26:56;;;;;;;47.10;19.35;;;;;;;;;;5107124;28;20075;-74
2024/01/20 05:29:22;;;;;;;46.33;18.73;;;;;;;;;;5114049;28;20464;-74
2024/01/20 05:31:47;;;;;;;43.00;17.65;;;;;;;;;;5106884;28;20016;-74
2024/01/20 05:34:12;;;;;;;52.92;21.30;;;;;;;;;;5115050;28;20027;-73
2024/01/20 05:36:37;;;;;;;44.80;17.80;;;;;;;;;;5106805;28;20038;-74
2024/01/20 05:39:03;;;;;;;48.85;18.67;;;;;;;;;;5113782;28;20512;-74
2024/01/20 05:41:28;;;;;;;44.60;18.25;;;;;;;;;;5108531;27;20023;-74
2024/01/20 05:43:53;;;;;;;44.05;17.05;;;;;;;;;;5111033;28;20383;-74
2024/01/20 05:46:19;;;;;;;42.17;17.52;;;;;;;;;;5109948;28;20382;-73
2024/01/20 05:48:45;;;;;;;47.70;18.75;;;;;;;;;;5109738;28;20463;-74
2024/01/20 05:51:10;;;;;;;44.33;18.83;;;;;;;;;;5103609;28;20027;-74
2024/01/20 05:53:35;;;;;;;44.97;18.03;;;;;;;;;;5113468;28;20261;-74
2024/01/20 05:56:00;;;;;;;44.65;19.17;;;;;;;;;;5106725;28;20373;-74
2024/01/20 05:58:25;;;;;;;46.63;18.20;;;;;;;;;;5112131;28;20096;-74
2024/01/20 06:00:51;;;;;;;44.80;18.60;;;;;;;;;;5111116;28;20273;-74
2024/01/20 06:03:16;;;;;;;49.30;18.83;;;;;;;;;;5110939;28;20007;-74
2024/01/20 06:05:41;;;;;;;41.75;18.00;;;;;;;;;;5108828;28;20679;-74
2024/01/20 06:08:06;;;;;;;46.13;19.92;;;;;;;;;;5108977;28;20019;-74
2024/01/20 06:10:31;;;;;;;50.10;18.77;;;;;;;;;;5110493;28;20454;-74
2024/01/20 06:12:58;;;;;;;41.50;17.98;;;;;;;;;;5107567;28;20274;-74
2024/01/20 06:15:23;;;;;;;40.03;17.45;;;;;;;;;;5110383;28;20015;-74
2024/01/20 06:17:48;;;;;;;43.03;18.23;;;;;;;;;;5108707;28;20016;-74
2024/01/20 06:20:15;;;;;;;45.97;17.93;;;;;;;;;;5109532;28;20261;-74
2024/01/20 06:22:40;;;;;;;46.97;18.10;;;;;;;;;;5106587;27;20287;-74
2024/01/20 06:25:06;;;;;;;46.17;18.53;;;;;;;;;;5104345;28;20016;-74
2024/01/20 06:27:31;;;;;;;40.80;17.13;;;;;;;;;;5107285;28;20300;-74
2024/01/20 06:29:56;;;;;;;41.50;16.67;;;;;;;;;;5105914;28;20024;-74
2024/01/20 06:32:21;;;;;;;44.60;17.30;;;;;;;;;;5105167;28;20393;-74
2024/01/20 06:34:46;;;;;;;46.33;17.90;;;;;;;;;;5106813;28;20016;-74
2024/01/20 06:37:12;;;;;;;43.33;17.85;;;;;;;;;;5111153;28;20277;-74
2024/01/20 06:39:39;;;;;;;42.88;18.20;;;;;;;;;;5102862;28;20026;-74
2024/01/20 06:42:04;;;;;;;39.33;17.73;;;;;;;;;;5103065;28;20065;-74
2024/01/20 06:44:29;;;;;;;42.13;17.33;;;;;;;;;;5105310;28;20012;-74
2024/01/20 06:46:55;;;;;;;43.85;16.95;;;;;;;;;;5105380;28;20110;-74
2024/01/20 06:49:20;;;;;;;42.80;18.13;;;;;;;;;;5105359;28;20026;-74
2024/01/20 06:51:45;;;;;;;41.87;17.77;;;;;;;;;;5106043;28;20020;-74
2024/01/20 06:54:10;;;;;;;42.78;17.50;;;;;;;;;;5105621;28;20763;-74
2024/01/20 06:56:36;;;;;;;38.20;15.98;;;;;;;;;;5105483;28;20062;-74
2024/01/20 06:59:02;;;;;;;37.53;17.05;;;;;;;;;;5107617;28;20123;-74
2024/01/20 07:01:27;;;;;;;43.63;17.67;;;;;;;;;;5105590;28;20024;-74
2024/01/20 07:03:52;;;;;;;39.33;17.03;;;;;;;;;;5105474;28;20046;-74
2024/01/20 07:06:21;;;;;;;39.97;17.13;;;;;;;;;;5108966;28;20302;-74
2024/01/20 07:08:46;;;;;;;43.30;17.67;;;;;;;;;;5104896;28;20020;-74
2024/01/20 07:11:12;;;;;;;35.90;15.52;;;;;;;;;;5106108;28;20030;-74
2024/01/20 07:13:37;;;;;;;43.95;17.08;;;;;;;;;;5104355;28;20027;-74
2024/01/20 07:16:07;;;;;;;44.50;16.73;;;;;;;;;;5103981;28;20146;-74
2024/01/20 07:18:32;;;;;;;38.65;17.05;;;;;;;;;;5105942;28;20365;-74
2024/01/20 07:20:57;;;;;;;40.05;17.48;;;;;;;;;;5102993;28;20031;-74
2024/01/20 07:23:23;;;;;;;41.93;18.00;;;;;;;;;;5107556;28;20069;-74
2024/01/20 07:25:48;;;;;;;42.50;18.27;;;;;;;;;;5102299;28;20297;-74
2024/01/20 07:28:13;;;;;;;43.40;17.73;;;;;;;;;;5108775;28;20273;-74
2024/01/20 07:30:38;;;;;;;41.40;18.13;;;;;;;;;;5101521;28;20266;-74
2024/01/20 07:33:03;;;;;;;36.03;17.45;;;;;;;;;;5108768;28;20272;-74
2024/01/20 07:35:29;;;;;;;42.92;18.52;;;;;;;;;;5101606;28;20024;-74
2024/01/20 07:37:54;;;;;;;37.65;17.17;;;;;;;;;;5107022;28;20359;-74
2024/01/20 07:40:19;;;;;;;43.03;18.02;;;;;;;;;;5104229;28;20072;-74
2024/01/20 07:42:44;;;;;;;40.80;17.83;;;;;;;;;;5104010;28;20585;-74
2024/01/20 07:45:09;;;;;;;41.38;18.05;;;;;;;;;;5105538;28;20038;-74
2024/01/20 07:47:35;;;;;;;43.33;19.37;;;;;;;;;;5105474;28;20036;-74
2024/01/20 07:50:00;;;;;;;41.42;17.23;;;;;;;;;;5104418;28;20348;-74
2024/01/20 07:52:25;;;;;;;42.08;19.02;;;;;;;;;;5104996;28;20128;-74
2024/01/20 07:54:50;;;;;;;45.70;19.20;;;;;;;;;;5104802;28;20105;-74
2024/01/20 07:57:15;;;;;;;41.97;17.13;;;;;;;;;;5104267;28;20277;-75
2024/01/20 07:59:41;;;;;;;41.15;18.15;;;;;;;;;;5110455;28;20347;-74
2024/01/20 08:02:06;;;;;;;43.53;18.58;;;;;;;;;;5105207;28;20463;-74
2024/01/20 08:04:32;;;;;;;44.60;18.23;;;;;;;;;;5104793;28;20027;-74
2024/01/20 08:06:57;;;;;;;40.20;18.45;;;;;;;;;;5104450;28;20751;-74
2024/01/20 08:09:23;;;;;;;45.03;19.83;;;;;;;;;;5104903;28;20060;-74
2024/01/20 08:11:48;;;;;;;40.50;17.15;;;;;;;;;;5101671;28;20016;-74
2024/01/20 08:14:13;;;;;;;38.90;17.20;;;;;;;;;;5104855;28;20061;-74
2024/01/20 08:16:39;;;;;;;38.67;16.90;;;;;;;;;;5103546;28;20107;-74
2024/01/20 08:19:04;;;;;;;44.50;17.52;;;;;;;;;;5102466;28;20261;-74
2024/01/20 08:21:29;;;;;;;46.40;17.88;;;;;;;;;;5105392;28;20024;-74
2024/01/20 08:23:55;;;;;;;39.83;16.67;;;;;;;;;;5101478;28;20024;-74
2024/01/20 08:26:20;;;;;;;44.15;18.42;;;;;;;;;;5106907;27;20392;-74
2024/01/20 08:28:45;;;;;;;43.75;16.95;;;;;;;;;;5101098;28;20061;-74
2024/01/20 08:31:10;;;;;;;43.83;18.30;;;;;;;;;;5107964;28;20478;-74
2024/01/20 08:33:35;;;;;;;41.90;19.07;;;;;;;;;;5101210;28;20103;-74
2024/01/20 08:36:01;;;;;;;40.87;18.13;;;;;;;;;;5107237;28;20277;-74
2024/01/20 08:38:26;;;;;;;37.00;16.15;;;;;;;;;;5106602;28;20293;-74
2024/01/20 08:40:51;;;;;;;44.80;17.43;;;;;;;;;;5104518;28;20029;-74
2024/01/20 08:43:16;;;;;;;42.47;17.30;;;;;;;;;;5104076;28;20265;-74
2024/01/20 08:45:41;;;;;;;37.15;17.52;;;;;;;;;;5099707;28;20716;-74
2024/01/20 08:48:08;;;;;;;38.25;16.77;;;;;;;;;;5107836;28;20530;-74
2024/01/20 08:50:33;;;;;;;36.90;16.65;;;;;;;;;;5102757;28;20023;-74
2024/01/20 08:52:58;;;;;;;38.77;17.20;;;;;;;;;;5104785;28;20019;-74
2024/01/20 08:55:23;;;;;;;42.00;18.43;;;;;;;;;;5104430;28;20667;-74
2024/01/20 08:57:48;;;;;;;41.13;19.20;;;;;;;;;;5103284;28;20313;-74
2024/01/20 09:00:16;;;;;;;40.07;17.37;;;;;;;;;;5108846;28;20609;-74
2024/01/20 09:02:41;;;;;;;37.05;16.50;;;;;;;;;;5103765;28;20282;-74
2024/01/20 09:05:07;;;;;;;32.40;16.10;;;;;;;;;;5104296;28;20008;-74
2024/01/20 09:07:32;;;;;;;30.75;15.77;;;;;;;;;;5103366;28;20084;-74
2024/01/20 09:09:57;;;;;;;36.00;15.43;;;;;;;;;;5101123;28;20020;-74
2024/01/20 09:12:22;;;;;;;35.23;16.93;;;;;;;;;;5104081;28;20365;-74
2024/01/20 09:14:48;;;;;;;39.15;16.08;;;;;;;;;;5100278;28;20254;-74
2024/01/20 09:17:13;;;;;;;37.63;17.88;;;;;;;;;;5103924;28;20016;-74
2024/01/20 09:19:38;;;;;;;37.22;17.08;;;;;;;;;;5109033;28;20023;-74
2024/01/20 09:22:03;;;;;;;40.23;17.80;;;;;;;;;;5106612;28;20024;-74
2024/01/20 09:24:28;;;;;;;32.33;16.25;;;;;;;;;;5111811;28;20261;-75
2024/01/20 09:26:54;;;;;;;37.50;17.43;;;;;;;;;;5106597;28;20043;-74
2024/01/20 09:29:19;;;;;;;37.53;17.73;;;;;;;;;;5106201;28;20305;-74
2024/01/20 09:31:45;;;;;;;39.40;17.40;;;;;;;;;;5102865;28;20270;-74
2024/01/20 09:34:10;;;;;;;33.28;16.15;;;;;;;;;;5100492;28;20258;-74
2024/01/20 09:36:36;;;;;;;35.60;17.55;;;;;;;;;;5104564;28;20084;-74
2024/01/20 09:39:02;;;;;;;38.67;17.48;;;;;;;;;;5100478;28;20032;-74
2024/01/20 09:41:27;;;;;;;34.65;16.30;;;;;;;;;;5107326;28;20076;-74
2024/01/20 09:43:53;;;;;;;40.90;18.27;;;;;;;;;;5099385;28;20024;-74
2024/01/20 09:46:18;;;;;;;34.00;16.60;;;;;;;;;;5103704;28;20028;-74
2024/01/20 09:48:44;;;;;;;36.33;16.63;;;;;;;;;;5111974;28;20012;-74
2024/01/20 09:51:10;;;;;;;36.22;17.95;;;;;;;;;;5101412;28;20056;-74
2024/01/20 09:53:35;;;;;;;32.38;15.57;;;;;;;;;;5108874;28;20012;-75
2024/01/20 09:56:00;;;;;;;38.80;17.02;;;;;;;;;;5099724;28;20830;-74
2024/01/20 09:58:26;;;;;;;32.35;16.83;;;;;;;;;;5111667;28;20044;-74
2024/01/20 10:00:52;;;;;;;34.65;16.50;;;;;;;;;;5109833;28;20028;-74
2024/01/20 10:03:20;;;;;;;33.95;17.27;;;;;;;;;;5103759;28;20024;-74
2024/01/20 10:05:45;;;;;;;34.78;16.08;;;;;;;;;;5109489;28;20509;-74
2024/01/20 10:08:12;;;;;;;34.33;16.20;;;;;;;;;;5104316;28;20028;-74
2024/01/20 10:10:37;;;;;;;31.65;16.25;;;;;;;;;;5109262;28;20019;-74
2024/01/20 10:13:03;;;;;;;30.55;16.58;;;;;;;;;;5104027;28;20080;-74
2024/01/20 10:15:30;;;;;;;32.88;15.70;;;;;;;;;;5108134;28;20023;-74
2024/01/20 10:17:55;;;;;;;31.17;15.48;;;;;;;;;;5104965;28;20490;-75
2024/01/20 10:20:21;;;;;;;32.83;14.77;;;;;;;;;;5106147;28;20019;-74
2024/01/20 10:22:46;;;;;;;30.50;15.65;;;;;;;;;;5106833;28;20275;-74
2024/01/20 10:25:18;;;;;;;28.40;14.80;;;;;;;;;;5103966;28;20487;-74
2024/01/20 10:27:44;;;;;;;28.70;14.02;;;;;;;;;;5106616;28;20028;-75
2024/01/20 10:30:09;;;;;;;32.35;14.73;;;;;;;;;;5104878;28;20069;-75
2024/01/20 10:32:34;;;;;;;32.83;14.38;;;;;;;;;;5111038;27;20483;-74
2024/01/20 10:35:00;;;;;;;29.40;14.40;;;;;;;;;;5105495;28;20015;-75
2024/01/20 10:37:29;;;;;;;30.25;14.63;;;;;;;;;;5106135;28;20365;-75
2024/01/20 10:39:55;;;;;;;31.30;15.05;;;;;;;;;;5106106;28;20015;-74
2024/01/20 10:42:21;;;;;;;29.40;14.75;;;;;;;;;;5104326;28;20131;-75
2024/01/20 10:45:01;;;;;;;30.50;15.32;;;;;;;;;;5106714;28;20035;-75
2024/01/20 10:47:34;;;;;;;33.22;16.50;;;;;;;;;;5105154;28;20118;-75
2024/01/20 10:50:03;;;;;;;29.55;14.15;;;;;;;;;;5106315;28;20012;-75
2024/01/20 10:52:28;;;;;;;27.70;14.32;;;;;;;;;;5105527;28;20016;-75
2024/01/20 10:54:53;;;;;;;31.38;15.23;;;;;;;;;;5106146;28;20022;-75
2024/01/20 10:57:18;;;;;;;30.67;14.50;;;;;;;;;;5106356;28;20073;-75
2024/01/20 10:59:45;;;;;;;30.20;15.25;;;;;;;;;;5107449;28;20322;-75
2024/01/20 11:02:11;;;;;;;29.48;14.95;;;;;;;;;;5106269;28;20109;-75
2024/01/20 11:04:39;;;;;;;33.00;15.65;;;;;;;;;;5103392;28;20070;-75
2024/01/20 11:07:06;;;;;;;34.33;16.38;;;;;;;;;;5105034;27;20115;-75
2024/01/20 11:09:31;;;;;;;33.55;15.70;;;;;;;;;;5104792;28;20375;-75
2024/01/20 11:12:00;;;;;;;35.05;17.38;;;;;;;;;;5104383;28;20024;-75
2024/01/20 11:14:28;;;;;;;32.15;15.27;;;;;;;;;;5105512;28;20102;-75
2024/01/20 11:16:55;;;;;;;29.02;15.13;;;;;;;;;;5103349;28;20038;-75
2024/01/20 11:19:20;;;;;;;34.03;15.52;;;;;;;;;;5106220;28;20015;-75
2024/01/20 11:21:45;;;;;;;29.30;14.50;;;;;;;;;;5103461;28;20095;-75
2024/01/20 11:24:11;;;;;;;28.73;14.70;;;;;;;;;;5104863;28;20338;-75
2024/01/20 11:26:37;;;;;;;28.42;14.43;;;;;;;;;;5108948;28;20312;-75
2024/01/20 11:29:04;;;;;;;30.20;14.88;;;;;;;;;;5102334;28;20020;-75
2024/01/20 11:31:32;;;;;;;30.50;14.98;;;;;;;;;;5108385;27;20386;-75
2024/01/20 11:33:59;;;;;;;29.20;14.75;;;;;;;;;;5102202;28;20471;-74
2024/01/20 11:36:27;;;;;;;32.40;16.70;;;;;;;;;;5108342;28;20042;-75
2024/01/20 11:38:52;;;;;;;29.27;15.45;;;;;;;;;;5101989;28;20024;-74
2024/01/20 11:41:21;;;;;;;28.88;15.60;;;;;;;;;;5109420;28;20106;-75
2024/01/20 11:43:46;;;;;;;34.00;16.67;;;;;;;;;;5101401;28;20425;-75
2024/01/20 11:46:12;;;;;;;35.80;18.50;;;;;;;;;;5102423;28;20024;-75
2024/01/20 11:48:37;;;;;;;38.90;20.58;;;;;;;;;;5109648;28;20571;-75
2024/01/20 11:51:03;;;;;;;37.58;19.52;;;;;;;;;;5102042;28;20024;-74
2024/01/20 11:53:28;;;;;;;37.08;18.75;;;;;;;;;;5110376;28;20016;-74
2024/01/20 11:55:54;;;;;;;40.70;19.60;;;;;;;;;;5100984;28;20034;-75
2024/01/20 11:58:19;;;;;;;41.05;19.38;;;;;;;;;;5109144;28;20085;-74
2024/01/20 12:00:44;;;;;;;44.15;21.17;;;;;;;;;;5108506;28;20027;-74
2024/01/20 12:03:09;;;;;;;39.07;20.00;;;;;;;;;;5101001;28;20080;-74
2024/01/20 12:05:35;;;;;;;38.83;20.70;;;;;;;;;;5107522;28;20285;-75
2024/01/20 12:08:01;;;;;;;38.42;19.42;;;;;;;;;;5101280;28;20326;-74
2024/01/20 12:10:26;;;;;;;40.20;20.58;;;;;;;;;;5105531;28;20027;-74
2024/01/20 12:12:51;;;;;;;38.83;19.23;;;;;;;;;;5103395;28;20534;-75
2024/01/20 12:15:16;;;;;;;37.13;19.77;;;;;;;;;;5103936;28;20257;-74
2024/01/20 12:17:42;;;;;;;33.55;17.35;;;;;;;;;;5104022;28;20284;-74
2024/01/20 12:20:07;;;;;;;34.55;17.40;;;;;;;;;;5101804;28;20455;-74
2024/01/20 12:22:32;;;;;;;29.25;15.82;;;;;;;;;;5105047;28;20015;-74
2024/01/20 12:24:58;;;;;;;30.77;15.33;;;;;;;;;;5101500;28;20024;-74
2024/01/20 12:27:24;;;;;;;25.60;13.93;;;;;;;;;;5108518;28;20644;-74
2024/01/20 12:29:51;;;;;;;25.48;14.20;;;;;;;;;;5103681;28;20028;-74
2024/01/20 12:32:16;;;;;;;28.73;14.18;;;;;;;;;;5103097;28;20031;-74
2024/01/20 12:34:41;;;;;;;30.52;15.02;;;;;;;;;;5104532;28;20024;-75
2024/01/20 12:37:06;;;;;;;25.90;13.37;;;;;;;;;;5102501;28;20046;-75
2024/01/20 12:39:32;;;;;;;23.05;13.30;;;;;;;;;;5103789;28;20280;-75
2024/01/20 12:41:57;;;;;;;23.42;12.57;;;;;;;;;;5104593;28;20472;-75
2024/01/20 12:44:22;;;;;;;24.63;13.45;;;;;;;;;;5102510;28;20023;-75
2024/01/20 12:46:48;;;;;;;23.23;13.00;;;;;;;;;;5103284;28;20028;-75
2024/01/20 12:49:13;;;;;;;22.95;13.40;;;;;;;;;;5104735;28;20781;-75
2024/01/20 12:51:42;;;;;;;20.90;12.75;;;;;;;;;;5104092;28;20069;-75
2024/01/20 12:54:07;;;;;;;26.50;14.52;;;;;;;;;;5102839;28;20016;-75
2024/01/20 12:56:33;;;;;;;22.88;12.98;;;;;;;;;;5102194;28;20016;-75
2024/01/20 12:58:58;;;;;;;21.53;12.27;;;;;;;;;;5110732;28;20040;-75
2024/01/20 13:01:23;;;;;;;25.15;12.20;;;;;;;;;;5106214;28;20266;-75
2024/01/20 13:03:50;;;;;;;18.95;10.90;;;;;;;;;;5103868;28;20024;-75
2024/01/20 13:06:15;;;;;;;22.42;11.73;;;;;;;;;;5106564;28;20073;-75
2024/01/20 13:08:40;;;;;;;19.50;11.57;;;;;;;;;;5102719;28;20364;-74
2024/01/20 13:11:05;;;;;;;27.60;14.87;;;;;;;;;;5106399;28;20016;-74
2024/01/20 13:13:31;;;;;;;23.57;13.70;;;;;;;;;;5104239;28;20261;-74
2024/01/20 13:15:56;;;;;;;25.35;14.38;;;;;;;;;;5109955;28;20304;-75
2024/01/20 13:18:21;;;;;;;28.38;14.45;;;;;;;;;;5106881;28;20012;-75
2024/01/20 13:20:46;;;;;;;25.15;13.93;;;;;;;;;;5107603;28;20027;-75
2024/01/20 13:23:11;;;;;;;24.83;14.68;;;;;;;;;;5110117;28;20047;-74
2024/01/20 13:25:39;;;;;;;24.88;14.50;;;;;;;;;;5110142;28;20023;-75
2024/01/20 13:28:04;;;;;;;29.10;15.60;;;;;;;;;;5102197;28;20031;-74
2024/01/20 13:30:29;;;;;;;26.63;14.23;;;;;;;;;;5103825;28;20026;-74
2024/01/20 13:32:54;;;;;;;25.42;14.55;;;;;;;;;;5107701;28;20491;-74
2024/01/20 13:35:20;;;;;;;27.45;14.18;;;;;;;;;;5105420;28;20028;-74
2024/01/20 13:37:45;;;;;;;25.30;14.20;;;;;;;;;;5107914;28;20027;-74
2024/01/20 13:40:10;;;;;;;24.33;13.75;;;;;;;;;;5106489;28;20481;-74
2024/01/20 13:42:36;;;;;;;22.20;12.57;;;;;;;;;;5107442;28;20440;-74
2024/01/20 13:45:02;;;;;;;20.27;12.43;;;;;;;;;;5107588;28;20027;-74
2024/01/20 13:47:28;;;;;;;16.67;11.15;;;;;;;;;;5107456;28;20308;-74
2024/01/20 13:49:53;;;;;;;17.87;11.13;;;;;;;;;;5106535;28;20098;-75
2024/01/20 13:52:18;;;;;;;20.57;11.30;;;;;;;;;;5107863;28;20805;-74
2024/01/20 13:54:43;;;;;;;18.30;10.57;;;;;;;;;;5107317;28;20265;-74
2024/01/20 13:57:09;;;;;;;17.95;10.77;;;;;;;;;;5106876;28;20011;-74
2024/01/20 13:59:34;;;;;;;19.08;10.80;;;;;;;;;;5108077;28;20459;-74
2024/01/20 14:02:00;;;;;;;18.77;10.32;;;;;;;;;;5107284;28;20106;-74
2024/01/20 14:04:25;;;;;;;17.48;10.65;;;;;;;;;;5105001;28;20018;-74
2024/01/20 14:06:50;;;;;;;20.23;10.43;;;;;;;;;;5111570;28;20077;-74